sensor_id;sensor_type;location;lat;lon;timestamp;temperature;humidity
32706;DHT22;19094;50.972;3.538;2022-07-11T00:02:16;24.00;52.50
32706;DHT22;19094;50.972;3.538;2022-07-11T00:04:43;24.00;52.60
32706;DHT22;19094;50.972;3.538;2022-07-11T00:07:10;23.90;52.60
32706;DHT22;19094;50.972;3.538;2022-07-11T00:09:36;24.00;52.60
32706;DHT22;19094;50.972;3.538;2022-07-11T00:12:05;23.90;52.60
32706;DHT22;19094;50.972;3.538;2022-07-11T00:14:30;23.90;52.60
32706;DHT22;19094;50.972;3.538;2022-07-11T00:17:00;23.90;52.70
32706;DHT22;19094;50.972;3.538;2022-07-11T00:19:27;23.90;52.70
32706;DHT22;19094;50.972;3.538;2022-07-11T00:21:53;23.90;52.70
32706;DHT22;19094;50.972;3.538;2022-07-11T00:24:19;23.90;52.70
32706;DHT22;19094;50.972;3.538;2022-07-11T00:26:50;23.90;52.70
32706;DHT22;19094;50.972;3.538;2022-07-11T00:29:17;23.90;52.80
32706;DHT22;19094;50.972;3.538;2022-07-11T00:31:43;23.90;52.80
32706;DHT22;19094;50.972;3.538;2022-07-11T00:34:10;23.90;52.70
32706;DHT22;19094;50.972;3.538;2022-07-11T00:36:36;23.90;52.80
32706;DHT22;19094;50.972;3.538;2022-07-11T00:39:03;23.90;52.80
32706;DHT22;19094;50.972;3.538;2022-07-11T00:41:29;23.90;52.80
32706;DHT22;19094;50.972;3.538;2022-07-11T00:43:57;23.80;52.80
32706;DHT22;19094;50.972;3.538;2022-07-11T00:46:24;23.80;53.50
32706;DHT22;19094;50.972;3.538;2022-07-11T00:48:50;23.80;52.90
32706;DHT22;19094;50.972;3.538;2022-07-11T00:51:21;23.80;53.00
32706;DHT22;19094;50.972;3.538;2022-07-11T00:53:49;23.70;53.00
32706;DHT22;19094;50.972;3.538;2022-07-11T00:56:18;23.70;53.00
32706;DHT22;19094;50.972;3.538;2022-07-11T00:58:44;23.70;53.00
32706;DHT22;19094;50.972;3.538;2022-07-11T01:01:12;23.70;53.10
32706;DHT22;19094;50.972;3.538;2022-07-11T01:03:37;23.70;53.10
32706;DHT22;19094;50.972;3.538;2022-07-11T01:06:06;23.70;53.20
32706;DHT22;19094;50.972;3.538;2022-07-11T01:08:36;23.70;53.20
32706;DHT22;19094;50.972;3.538;2022-07-11T01:11:05;23.60;53.20
32706;DHT22;19094;50.972;3.538;2022-07-11T01:13:31;23.60;53.20
32706;DHT22;19094;50.972;3.538;2022-07-11T01:16:17;23.60;53.20
32706;DHT22;19094;50.972;3.538;2022-07-11T01:18:46;23.60;53.30
32706;DHT22;19094;50.972;3.538;2022-07-11T01:23:51;23.60;53.30
32706;DHT22;19094;50.972;3.538;2022-07-11T01:26:19;23.60;53.30
32706;DHT22;19094;50.972;3.538;2022-07-11T01:28:47;23.60;53.40
32706;DHT22;19094;50.972;3.538;2022-07-11T01:31:13;23.50;53.30
32706;DHT22;19094;50.972;3.538;2022-07-11T01:33:40;23.50;53.30
32706;DHT22;19094;50.972;3.538;2022-07-11T01:36:08;23.50;53.40
32706;DHT22;19094;50.972;3.538;2022-07-11T01:38:39;23.50;54.00
32706;DHT22;19094;50.972;3.538;2022-07-11T01:41:05;23.50;53.40
32706;DHT22;19094;50.972;3.538;2022-07-11T01:43:31;23.50;53.40
32706;DHT22;19094;50.972;3.538;2022-07-11T01:45:58;23.50;53.40
32706;DHT22;19094;50.972;3.538;2022-07-11T01:48:25;23.50;53.50
32706;DHT22;19094;50.972;3.538;2022-07-11T01:50:53;23.50;53.50
32706;DHT22;19094;50.972;3.538;2022-07-11T01:53:18;23.40;53.40
32706;DHT22;19094;50.972;3.538;2022-07-11T01:55:44;23.40;53.40
32706;DHT22;19094;50.972;3.538;2022-07-11T01:58:10;23.40;53.50
32706;DHT22;19094;50.972;3.538;2022-07-11T02:00:36;23.40;53.60
32706;DHT22;19094;50.972;3.538;2022-07-11T02:03:03;23.40;53.60
32706;DHT22;19094;50.972;3.538;2022-07-11T02:05:30;23.40;53.60
32706;DHT22;19094;50.972;3.538;2022-07-11T02:07:56;23.40;54.20
32706;DHT22;19094;50.972;3.538;2022-07-11T02:10:41;23.30;53.60
32706;DHT22;19094;50.972;3.538;2022-07-11T02:13:08;23.30;53.60
32706;DHT22;19094;50.972;3.538;2022-07-11T02:15:35;23.30;53.60
32706;DHT22;19094;50.972;3.538;2022-07-11T02:18:05;23.30;53.70
32706;DHT22;19094;50.972;3.538;2022-07-11T02:20:33;23.30;53.70
32706;DHT22;19094;50.972;3.538;2022-07-11T02:23:00;23.30;53.70
32706;DHT22;19094;50.972;3.538;2022-07-11T02:25:28;23.30;53.70
32706;DHT22;19094;50.972;3.538;2022-07-11T02:27:55;23.30;53.70
32706;DHT22;19094;50.972;3.538;2022-07-11T02:30:21;23.30;53.70
32706;DHT22;19094;50.972;3.538;2022-07-11T02:32:47;23.20;53.70
32706;DHT22;19094;50.972;3.538;2022-07-11T02:35:13;23.20;53.70
32706;DHT22;19094;50.972;3.538;2022-07-11T02:37:40;23.20;53.80
32706;DHT22;19094;50.972;3.538;2022-07-11T02:40:11;23.20;53.80
32706;DHT22;19094;50.972;3.538;2022-07-11T02:42:37;23.20;53.90
32706;DHT22;19094;50.972;3.538;2022-07-11T02:45:06;23.20;53.80
32706;DHT22;19094;50.972;3.538;2022-07-11T02:47:34;23.20;53.90
32706;DHT22;19094;50.972;3.538;2022-07-11T02:50:02;23.20;53.90
32706;DHT22;19094;50.972;3.538;2022-07-11T02:52:28;23.10;53.90
32706;DHT22;19094;50.972;3.538;2022-07-11T02:54:56;23.10;54.40
32706;DHT22;19094;50.972;3.538;2022-07-11T02:57:22;23.10;54.00
32706;DHT22;19094;50.972;3.538;2022-07-11T02:59:49;23.10;54.00
32706;DHT22;19094;50.972;3.538;2022-07-11T03:02:17;23.00;54.10
32706;DHT22;19094;50.972;3.538;2022-07-11T03:04:42;23.00;54.10
32706;DHT22;19094;50.972;3.538;2022-07-11T03:07:08;23.00;54.10
32706;DHT22;19094;50.972;3.538;2022-07-11T03:09:34;23.00;54.10
32706;DHT22;19094;50.972;3.538;2022-07-11T03:12:01;23.00;54.10
32706;DHT22;19094;50.972;3.538;2022-07-11T03:14:29;23.00;54.10
32706;DHT22;19094;50.972;3.538;2022-07-11T03:16:54;23.00;54.20
32706;DHT22;19094;50.972;3.538;2022-07-11T03:19:21;23.00;54.20
32706;DHT22;19094;50.972;3.538;2022-07-11T03:21:46;23.00;54.20
32706;DHT22;19094;50.972;3.538;2022-07-11T03:24:12;23.00;54.20
32706;DHT22;19094;50.972;3.538;2022-07-11T03:26:39;22.90;54.20
32706;DHT22;19094;50.972;3.538;2022-07-11T03:29:05;23.00;54.20
32706;DHT22;19094;50.972;3.538;2022-07-11T03:31:33;22.90;54.90
32706;DHT22;19094;50.972;3.538;2022-07-11T03:33:59;22.90;54.20
32706;DHT22;19094;50.972;3.538;2022-07-11T03:36:25;22.90;54.10
32706;DHT22;19094;50.972;3.538;2022-07-11T03:38:51;22.90;54.20
32706;DHT22;19094;50.972;3.538;2022-07-11T03:41:17;22.90;54.20
32706;DHT22;19094;50.972;3.538;2022-07-11T03:43:42;22.90;54.30
32706;DHT22;19094;50.972;3.538;2022-07-11T03:46:08;22.90;54.30
32706;DHT22;19094;50.972;3.538;2022-07-11T03:48:34;22.90;54.30
32706;DHT22;19094;50.972;3.538;2022-07-11T03:51:00;22.80;54.60
32706;DHT22;19094;50.972;3.538;2022-07-11T03:53:26;22.70;54.40
32706;DHT22;19094;50.972;3.538;2022-07-11T03:55:52;22.70;54.50
32706;DHT22;19094;50.972;3.538;2022-07-11T03:58:18;22.70;54.60
32706;DHT22;19094;50.972;3.538;2022-07-11T04:00:44;22.70;54.80
32706;DHT22;19094;50.972;3.538;2022-07-11T04:03:10;22.70;54.80
32706;DHT22;19094;50.972;3.538;2022-07-11T04:05:36;22.60;54.90
32706;DHT22;19094;50.972;3.538;2022-07-11T04:08:02;22.60;54.90
32706;DHT22;19094;50.972;3.538;2022-07-11T04:10:28;22.60;54.90
32706;DHT22;19094;50.972;3.538;2022-07-11T04:12:53;22.60;55.00
32706;DHT22;19094;50.972;3.538;2022-07-11T04:15:19;22.50;55.00
32706;DHT22;19094;50.972;3.538;2022-07-11T04:17:45;22.50;55.10
32706;DHT22;19094;50.972;3.538;2022-07-11T04:20:13;22.50;55.20
32706;DHT22;19094;50.972;3.538;2022-07-11T04:22:40;22.50;55.30
32706;DHT22;19094;50.972;3.538;2022-07-11T04:25:07;22.50;55.30
32706;DHT22;19094;50.972;3.538;2022-07-11T04:27:34;22.50;55.40
32706;DHT22;19094;50.972;3.538;2022-07-11T04:30:01;22.50;55.40
32706;DHT22;19094;50.972;3.538;2022-07-11T04:32:27;22.50;55.50
32706;DHT22;19094;50.972;3.538;2022-07-11T04:34:52;22.50;55.30
32706;DHT22;19094;50.972;3.538;2022-07-11T04:37:19;22.40;55.40
32706;DHT22;19094;50.972;3.538;2022-07-11T04:39:46;22.50;55.50
32706;DHT22;19094;50.972;3.538;2022-07-11T04:42:14;22.50;55.50
32706;DHT22;19094;50.972;3.538;2022-07-11T04:44:41;22.40;55.50
32706;DHT22;19094;50.972;3.538;2022-07-11T04:47:07;22.40;55.50
32706;DHT22;19094;50.972;3.538;2022-07-11T04:49:34;22.50;55.60
32706;DHT22;19094;50.972;3.538;2022-07-11T04:52:01;22.40;55.50
32706;DHT22;19094;50.972;3.538;2022-07-11T04:54:27;22.50;55.60
32706;DHT22;19094;50.972;3.538;2022-07-11T04:56:52;22.50;55.60
32706;DHT22;19094;50.972;3.538;2022-07-11T04:59:19;22.50;55.60
32706;DHT22;19094;50.972;3.538;2022-07-11T05:01:44;22.50;55.60
32706;DHT22;19094;50.972;3.538;2022-07-11T05:04:11;22.50;55.60
32706;DHT22;19094;50.972;3.538;2022-07-11T05:06:38;22.50;55.70
32706;DHT22;19094;50.972;3.538;2022-07-11T05:09:05;22.50;55.60
32706;DHT22;19094;50.972;3.538;2022-07-11T05:11:33;22.50;55.70
32706;DHT22;19094;50.972;3.538;2022-07-11T05:14:01;22.50;55.70
32706;DHT22;19094;50.972;3.538;2022-07-11T05:16:27;22.50;55.70
32706;DHT22;19094;50.972;3.538;2022-07-11T05:18:53;22.50;55.70
32706;DHT22;19094;50.972;3.538;2022-07-11T05:21:19;22.50;55.80
32706;DHT22;19094;50.972;3.538;2022-07-11T05:23:51;22.50;55.80
32706;DHT22;19094;50.972;3.538;2022-07-11T05:26:17;22.50;55.80
32706;DHT22;19094;50.972;3.538;2022-07-11T05:28:42;22.50;55.70
32706;DHT22;19094;50.972;3.538;2022-07-11T05:31:09;22.60;55.70
32706;DHT22;19094;50.972;3.538;2022-07-11T05:33:36;22.50;55.50
32706;DHT22;19094;50.972;3.538;2022-07-11T05:36:03;22.60;55.50
32706;DHT22;19094;50.972;3.538;2022-07-11T05:38:29;22.60;55.50
32706;DHT22;19094;50.972;3.538;2022-07-11T05:40:55;22.60;55.60
32706;DHT22;19094;50.972;3.538;2022-07-11T05:43:23;22.60;55.40
32706;DHT22;19094;50.972;3.538;2022-07-11T05:45:49;22.60;55.30
32706;DHT22;19094;50.972;3.538;2022-07-11T05:48:14;22.60;55.20
32706;DHT22;19094;50.972;3.538;2022-07-11T05:50:41;22.70;55.60
32706;DHT22;19094;50.972;3.538;2022-07-11T05:53:06;22.70;55.50
32706;DHT22;19094;50.972;3.538;2022-07-11T05:55:33;22.70;55.70
32706;DHT22;19094;50.972;3.538;2022-07-11T05:58:00;22.70;55.70
32706;DHT22;19094;50.972;3.538;2022-07-11T06:00:26;22.70;55.60
32706;DHT22;19094;50.972;3.538;2022-07-11T06:02:52;22.70;55.60
32706;DHT22;19094;50.972;3.538;2022-07-11T06:05:19;22.70;55.80
32706;DHT22;19094;50.972;3.538;2022-07-11T06:07:49;22.70;55.60
32706;DHT22;19094;50.972;3.538;2022-07-11T06:10:33;22.70;55.70
32706;DHT22;19094;50.972;3.538;2022-07-11T06:13:31;22.70;55.30
32706;DHT22;19094;50.972;3.538;2022-07-11T06:16:26;22.70;55.50
32706;DHT22;19094;50.972;3.538;2022-07-11T06:18:52;22.70;55.20
32706;DHT22;19094;50.972;3.538;2022-07-11T06:21:18;22.70;55.20
32706;DHT22;19094;50.972;3.538;2022-07-11T06:23:46;22.70;55.10
32706;DHT22;19094;50.972;3.538;2022-07-11T06:26:14;22.70;55.20
32706;DHT22;19094;50.972;3.538;2022-07-11T06:28:41;22.70;55.20
32706;DHT22;19094;50.972;3.538;2022-07-11T06:31:18;22.70;55.60
32706;DHT22;19094;50.972;3.538;2022-07-11T06:33:43;22.70;55.60
32706;DHT22;19094;50.972;3.538;2022-07-11T06:36:09;22.80;55.40
32706;DHT22;19094;50.972;3.538;2022-07-11T06:38:35;22.80;55.40
32706;DHT22;19094;50.972;3.538;2022-07-11T06:41:01;22.80;55.40
32706;DHT22;19094;50.972;3.538;2022-07-11T06:43:28;22.90;55.40
32706;DHT22;19094;50.972;3.538;2022-07-11T06:45:54;22.90;55.40
32706;DHT22;19094;50.972;3.538;2022-07-11T06:48:20;22.90;55.60
32706;DHT22;19094;50.972;3.538;2022-07-11T06:50:47;22.90;55.90
32706;DHT22;19094;50.972;3.538;2022-07-11T06:53:12;22.80;56.20
32706;DHT22;19094;50.972;3.538;2022-07-11T06:55:38;22.80;56.50
32706;DHT22;19094;50.972;3.538;2022-07-11T06:58:04;22.80;56.30
32706;DHT22;19094;50.972;3.538;2022-07-11T07:00:31;22.90;56.70
32706;DHT22;19094;50.972;3.538;2022-07-11T07:02:57;22.90;57.40
32706;DHT22;19094;50.972;3.538;2022-07-11T07:05:25;23.00;56.70
32706;DHT22;19094;50.972;3.538;2022-07-11T07:07:53;23.00;56.50
32706;DHT22;19094;50.972;3.538;2022-07-11T07:10:19;23.00;57.10
32706;DHT22;19094;50.972;3.538;2022-07-11T07:12:45;23.00;57.80
32706;DHT22;19094;50.972;3.538;2022-07-11T07:15:12;23.10;57.90
32706;DHT22;19094;50.972;3.538;2022-07-11T07:17:38;23.10;58.60
32706;DHT22;19094;50.972;3.538;2022-07-11T07:20:08;23.20;59.00
32706;DHT22;19094;50.972;3.538;2022-07-11T07:22:36;23.20;59.40
32706;DHT22;19094;50.972;3.538;2022-07-11T07:25:02;23.20;60.30
32706;DHT22;19094;50.972;3.538;2022-07-11T07:27:27;23.20;60.30
32706;DHT22;19094;50.972;3.538;2022-07-11T07:29:56;23.20;60.30
32706;DHT22;19094;50.972;3.538;2022-07-11T07:32:22;23.20;60.20
32706;DHT22;19094;50.972;3.538;2022-07-11T07:34:48;23.20;60.10
32706;DHT22;19094;50.972;3.538;2022-07-11T07:37:14;23.30;59.90
32706;DHT22;19094;50.972;3.538;2022-07-11T07:39:41;23.30;59.90
32706;DHT22;19094;50.972;3.538;2022-07-11T07:42:07;23.30;60.10
32706;DHT22;19094;50.972;3.538;2022-07-11T07:44:33;23.30;59.90
32706;DHT22;19094;50.972;3.538;2022-07-11T07:47:00;23.40;60.10
32706;DHT22;19094;50.972;3.538;2022-07-11T07:49:27;23.40;60.10
32706;DHT22;19094;50.972;3.538;2022-07-11T07:51:52;23.40;60.10
32706;DHT22;19094;50.972;3.538;2022-07-11T07:54:19;23.40;59.90
32706;DHT22;19094;50.972;3.538;2022-07-11T07:56:45;23.30;59.70
32706;DHT22;19094;50.972;3.538;2022-07-11T07:59:11;23.40;59.70
32706;DHT22;19094;50.972;3.538;2022-07-11T08:01:37;23.40;59.50
32706;DHT22;19094;50.972;3.538;2022-07-11T08:04:08;23.40;59.30
32706;DHT22;19094;50.972;3.538;2022-07-11T08:06:36;23.40;59.30
32706;DHT22;19094;50.972;3.538;2022-07-11T08:09:04;23.40;59.20
32706;DHT22;19094;50.972;3.538;2022-07-11T08:11:30;23.40;59.10
32706;DHT22;19094;50.972;3.538;2022-07-11T08:13:58;23.50;59.10
32706;DHT22;19094;50.972;3.538;2022-07-11T08:16:24;23.50;58.60
32706;DHT22;19094;50.972;3.538;2022-07-11T08:18:50;23.50;59.00
32706;DHT22;19094;50.972;3.538;2022-07-11T08:21:19;23.50;58.80
32706;DHT22;19094;50.972;3.538;2022-07-11T08:23:46;23.50;58.50
32706;DHT22;19094;50.972;3.538;2022-07-11T08:26:13;23.60;58.40
32706;DHT22;19094;50.972;3.538;2022-07-11T08:28:40;23.60;58.30
32706;DHT22;19094;50.972;3.538;2022-07-11T08:31:06;23.60;58.40
32706;DHT22;19094;50.972;3.538;2022-07-11T08:33:32;23.70;58.20
32706;DHT22;19094;50.972;3.538;2022-07-11T08:36:02;23.70;58.00
32706;DHT22;19094;50.972;3.538;2022-07-11T08:38:29;23.70;57.70
32706;DHT22;19094;50.972;3.538;2022-07-11T08:40:55;23.70;57.90
32706;DHT22;19094;50.972;3.538;2022-07-11T08:43:27;23.80;57.70
32706;DHT22;19094;50.972;3.538;2022-07-11T08:46:00;23.80;57.40
32706;DHT22;19094;50.972;3.538;2022-07-11T08:48:38;23.90;57.20
32706;DHT22;19094;50.972;3.538;2022-07-11T08:51:05;23.90;57.00
32706;DHT22;19094;50.972;3.538;2022-07-11T08:53:33;24.00;56.60
32706;DHT22;19094;50.972;3.538;2022-07-11T08:56:04;24.00;56.70
32706;DHT22;19094;50.972;3.538;2022-07-11T08:58:32;24.10;56.80
32706;DHT22;19094;50.972;3.538;2022-07-11T09:00:59;24.00;56.50
32706;DHT22;19094;50.972;3.538;2022-07-11T09:03:25;24.10;56.60
32706;DHT22;19094;50.972;3.538;2022-07-11T09:05:52;24.10;56.50
32706;DHT22;19094;50.972;3.538;2022-07-11T09:08:19;24.10;55.90
32706;DHT22;19094;50.972;3.538;2022-07-11T09:10:46;24.20;55.70
32706;DHT22;19094;50.972;3.538;2022-07-11T09:13:12;24.20;55.40
32706;DHT22;19094;50.972;3.538;2022-07-11T09:15:40;24.30;55.30
32706;DHT22;19094;50.972;3.538;2022-07-11T09:18:37;24.30;55.50
32706;DHT22;19094;50.972;3.538;2022-07-11T09:21:14;24.30;55.50
32706;DHT22;19094;50.972;3.538;2022-07-11T09:24:00;24.30;55.60
32706;DHT22;19094;50.972;3.538;2022-07-11T09:26:50;24.40;55.20
32706;DHT22;19094;50.972;3.538;2022-07-11T09:29:21;24.50;54.80
32706;DHT22;19094;50.972;3.538;2022-07-11T09:31:50;24.50;54.80
32706;DHT22;19094;50.972;3.538;2022-07-11T09:34:23;24.50;54.80
32706;DHT22;19094;50.972;3.538;2022-07-11T09:36:54;24.50;54.90
32706;DHT22;19094;50.972;3.538;2022-07-11T09:39:26;24.50;54.90
32706;DHT22;19094;50.972;3.538;2022-07-11T09:41:54;24.50;54.60
32706;DHT22;19094;50.972;3.538;2022-07-11T09:44:29;24.50;54.80
32706;DHT22;19094;50.972;3.538;2022-07-11T09:46:58;24.50;54.60
32706;DHT22;19094;50.972;3.538;2022-07-11T09:49:33;24.50;54.50
32706;DHT22;19094;50.972;3.538;2022-07-11T09:52:12;24.50;54.70
32706;DHT22;19094;50.972;3.538;2022-07-11T09:54:56;24.50;54.60
32706;DHT22;19094;50.972;3.538;2022-07-11T09:57:34;24.50;54.50
32706;DHT22;19094;50.972;3.538;2022-07-11T10:00:07;24.50;54.30
32706;DHT22;19094;50.972;3.538;2022-07-11T10:02:34;24.60;54.20
32706;DHT22;19094;50.972;3.538;2022-07-11T10:05:00;24.60;54.20
32706;DHT22;19094;50.972;3.538;2022-07-11T10:07:27;24.60;53.90
32706;DHT22;19094;50.972;3.538;2022-07-11T10:09:53;24.60;54.00
32706;DHT22;19094;50.972;3.538;2022-07-11T10:12:20;24.60;54.00
32706;DHT22;19094;50.972;3.538;2022-07-11T10:14:47;24.60;54.00
32706;DHT22;19094;50.972;3.538;2022-07-11T10:17:30;24.60;54.10
32706;DHT22;19094;50.972;3.538;2022-07-11T10:28:17;24.70;53.80
32706;DHT22;19094;50.972;3.538;2022-07-11T10:30:47;24.70;53.60
32706;DHT22;19094;50.972;3.538;2022-07-11T10:33:16;24.80;53.60
32706;DHT22;19094;50.972;3.538;2022-07-11T10:35:48;24.80;53.50
32706;DHT22;19094;50.972;3.538;2022-07-11T10:38:15;24.80;53.60
32706;DHT22;19094;50.972;3.538;2022-07-11T10:40:55;24.80;53.40
32706;DHT22;19094;50.972;3.538;2022-07-11T10:43:37;24.80;53.30
32706;DHT22;19094;50.972;3.538;2022-07-11T10:46:08;24.80;53.40
32706;DHT22;19094;50.972;3.538;2022-07-11T10:57:23;24.80;53.20
32706;DHT22;19094;50.972;3.538;2022-07-11T10:59:55;24.90;53.20
32706;DHT22;19094;50.972;3.538;2022-07-11T11:02:23;24.90;53.10
32706;DHT22;19094;50.972;3.538;2022-07-11T11:05:00;24.90;53.00
32706;DHT22;19094;50.972;3.538;2022-07-11T11:07:46;24.90;53.00
32706;DHT22;19094;50.972;3.538;2022-07-11T11:23:59;25.00;53.20
32706;DHT22;19094;50.972;3.538;2022-07-11T11:26:44;25.10;53.20
32706;DHT22;19094;50.972;3.538;2022-07-11T11:29:10;25.10;52.90
32706;DHT22;19094;50.972;3.538;2022-07-11T11:31:36;25.20;52.70
32706;DHT22;19094;50.972;3.538;2022-07-11T11:34:04;25.30;52.70
32706;DHT22;19094;50.972;3.538;2022-07-11T11:36:30;25.20;52.90
32706;DHT22;19094;50.972;3.538;2022-07-11T11:38:57;25.20;52.70
32706;DHT22;19094;50.972;3.538;2022-07-11T11:41:29;25.30;52.70
32706;DHT22;19094;50.972;3.538;2022-07-11T11:43:58;25.40;52.50
32706;DHT22;19094;50.972;3.538;2022-07-11T11:46:26;25.40;52.50
32706;DHT22;19094;50.972;3.538;2022-07-11T11:48:57;25.30;52.60
32706;DHT22;19094;50.972;3.538;2022-07-11T11:51:24;25.40;52.40
32706;DHT22;19094;50.972;3.538;2022-07-11T11:53:57;25.50;52.30
32706;DHT22;19094;50.972;3.538;2022-07-11T11:56:30;25.40;52.30
32706;DHT22;19094;50.972;3.538;2022-07-11T11:59:09;25.50;52.80
32706;DHT22;19094;50.972;3.538;2022-07-11T12:01:39;25.50;52.10
32706;DHT22;19094;50.972;3.538;2022-07-11T12:04:08;25.50;52.40
32706;DHT22;19094;50.972;3.538;2022-07-11T12:06:42;25.50;52.20
32706;DHT22;19094;50.972;3.538;2022-07-11T12:09:21;25.60;52.00
32706;DHT22;19094;50.972;3.538;2022-07-11T12:12:06;25.60;52.00
32706;DHT22;19094;50.972;3.538;2022-07-11T12:14:51;25.70;51.90
32706;DHT22;19094;50.972;3.538;2022-07-11T12:17:26;25.80;51.70
32706;DHT22;19094;50.972;3.538;2022-07-11T12:19:52;25.80;51.70
32706;DHT22;19094;50.972;3.538;2022-07-11T12:22:18;25.90;51.40
32706;DHT22;19094;50.972;3.538;2022-07-11T12:24:49;25.90;51.40
32706;DHT22;19094;50.972;3.538;2022-07-11T12:27:23;25.90;51.30
32706;DHT22;19094;50.972;3.538;2022-07-11T12:29:51;25.90;51.40
32706;DHT22;19094;50.972;3.538;2022-07-11T12:32:19;25.90;51.30
32706;DHT22;19094;50.972;3.538;2022-07-11T12:34:47;26.00;51.10
32706;DHT22;19094;50.972;3.538;2022-07-11T12:37:20;26.00;51.20
32706;DHT22;19094;50.972;3.538;2022-07-11T12:39:53;26.00;51.00
32706;DHT22;19094;50.972;3.538;2022-07-11T12:42:27;26.10;50.80
32706;DHT22;19094;50.972;3.538;2022-07-11T12:45:12;26.10;50.80
32706;DHT22;19094;50.972;3.538;2022-07-11T12:47:43;26.10;50.70
32706;DHT22;19094;50.972;3.538;2022-07-11T12:52:45;26.30;50.40
32706;DHT22;19094;50.972;3.538;2022-07-11T12:55:27;26.40;50.00
32706;DHT22;19094;50.972;3.538;2022-07-11T12:58:12;26.40;50.00
32706;DHT22;19094;50.972;3.538;2022-07-11T13:00:59;26.50;49.80
32706;DHT22;19094;50.972;3.538;2022-07-11T13:03:33;26.40;49.90
32706;DHT22;19094;50.972;3.538;2022-07-11T13:05:59;26.50;49.80
32706;DHT22;19094;50.972;3.538;2022-07-11T13:08:32;26.50;49.70
32706;DHT22;19094;50.972;3.538;2022-07-11T13:11:18;26.60;49.60
32706;DHT22;19094;50.972;3.538;2022-07-11T13:13:51;26.60;49.50
32706;DHT22;19094;50.972;3.538;2022-07-11T13:16:18;26.60;49.40
32706;DHT22;19094;50.972;3.538;2022-07-11T13:18:44;26.70;49.30
32706;DHT22;19094;50.972;3.538;2022-07-11T13:21:30;26.70;49.20
32706;DHT22;19094;50.972;3.538;2022-07-11T13:23:56;26.80;49.10
32706;DHT22;19094;50.972;3.538;2022-07-11T13:26:21;26.90;48.70
32706;DHT22;19094;50.972;3.538;2022-07-11T13:28:47;26.90;48.80
32706;DHT22;19094;50.972;3.538;2022-07-11T13:31:13;27.00;48.60
32706;DHT22;19094;50.972;3.538;2022-07-11T13:33:39;27.20;48.40
32706;DHT22;19094;50.972;3.538;2022-07-11T13:36:07;27.10;48.40
32706;DHT22;19094;50.972;3.538;2022-07-11T13:38:33;27.20;48.40
32706;DHT22;19094;50.972;3.538;2022-07-11T13:40:59;27.20;48.40
32706;DHT22;19094;50.972;3.538;2022-07-11T13:43:25;27.20;48.30
32706;DHT22;19094;50.972;3.538;2022-07-11T13:45:50;27.30;48.20
32706;DHT22;19094;50.972;3.538;2022-07-11T13:48:17;27.20;48.30
32706;DHT22;19094;50.972;3.538;2022-07-11T13:50:44;27.20;48.20
32706;DHT22;19094;50.972;3.538;2022-07-11T13:53:11;27.20;48.20
32706;DHT22;19094;50.972;3.538;2022-07-11T13:55:37;27.30;48.10
32706;DHT22;19094;50.972;3.538;2022-07-11T13:58:02;27.20;48.20
32706;DHT22;19094;50.972;3.538;2022-07-11T14:00:29;27.20;48.20
32706;DHT22;19094;50.972;3.538;2022-07-11T14:02:55;27.30;48.10
32706;DHT22;19094;50.972;3.538;2022-07-11T14:05:21;27.20;48.10
32706;DHT22;19094;50.972;3.538;2022-07-11T14:07:47;27.30;48.10
32706;DHT22;19094;50.972;3.538;2022-07-11T14:10:13;27.40;47.70
32706;DHT22;19094;50.972;3.538;2022-07-11T14:12:39;27.50;47.70
32706;DHT22;19094;50.972;3.538;2022-07-11T14:15:07;27.50;47.70
32706;DHT22;19094;50.972;3.538;2022-07-11T14:17:34;27.50;47.60
32706;DHT22;19094;50.972;3.538;2022-07-11T14:20:00;27.60;47.50
32706;DHT22;19094;50.972;3.538;2022-07-11T14:22:26;27.60;47.50
32706;DHT22;19094;50.972;3.538;2022-07-11T14:24:52;27.60;47.30
32706;DHT22;19094;50.972;3.538;2022-07-11T14:27:18;27.60;47.50
32706;DHT22;19094;50.972;3.538;2022-07-11T14:29:44;27.60;47.60
32706;DHT22;19094;50.972;3.538;2022-07-11T14:32:13;27.50;47.60
32706;DHT22;19094;50.972;3.538;2022-07-11T14:34:39;27.50;47.60
32706;DHT22;19094;50.972;3.538;2022-07-11T14:37:04;27.60;47.60
32706;DHT22;19094;50.972;3.538;2022-07-11T14:39:31;27.70;47.20
32706;DHT22;19094;50.972;3.538;2022-07-11T14:42:00;27.80;47.10
32706;DHT22;19094;50.972;3.538;2022-07-11T14:44:29;27.80;47.10
32706;DHT22;19094;50.972;3.538;2022-07-11T14:46:55;27.80;47.00
32706;DHT22;19094;50.972;3.538;2022-07-11T14:49:21;27.80;47.00
32706;DHT22;19094;50.972;3.538;2022-07-11T14:51:48;27.80;47.00
32706;DHT22;19094;50.972;3.538;2022-07-11T14:54:13;27.80;47.60
32706;DHT22;19094;50.972;3.538;2022-07-11T14:56:39;27.90;46.90
32706;DHT22;19094;50.972;3.538;2022-07-11T14:59:05;28.00;46.80
32706;DHT22;19094;50.972;3.538;2022-07-11T15:01:33;28.00;46.70
32706;DHT22;19094;50.972;3.538;2022-07-11T15:03:59;27.90;46.70
32706;DHT22;19094;50.972;3.538;2022-07-11T15:06:29;28.00;46.70
32706;DHT22;19094;50.972;3.538;2022-07-11T15:09:15;28.00;46.60
32706;DHT22;19094;50.972;3.538;2022-07-11T15:12:04;28.00;46.70
32706;DHT22;19094;50.972;3.538;2022-07-11T15:14:49;28.10;46.50
32706;DHT22;19094;50.972;3.538;2022-07-11T15:17:15;28.10;46.40
32706;DHT22;19094;50.972;3.538;2022-07-11T15:19:40;28.10;46.40
32706;DHT22;19094;50.972;3.538;2022-07-11T15:22:06;28.20;46.30
32706;DHT22;19094;50.972;3.538;2022-07-11T15:24:33;28.20;46.10
32706;DHT22;19094;50.972;3.538;2022-07-11T15:26:58;28.30;46.20
32706;DHT22;19094;50.972;3.538;2022-07-11T15:29:25;28.30;46.00
32706;DHT22;19094;50.972;3.538;2022-07-11T15:31:51;28.30;46.00
32706;DHT22;19094;50.972;3.538;2022-07-11T15:34:17;28.30;46.00
32706;DHT22;19094;50.972;3.538;2022-07-11T15:36:48;28.40;45.70
32706;DHT22;19094;50.972;3.538;2022-07-11T15:39:14;28.50;45.60
32706;DHT22;19094;50.972;3.538;2022-07-11T15:41:43;28.50;45.60
32706;DHT22;19094;50.972;3.538;2022-07-11T15:44:08;28.70;45.10
32706;DHT22;19094;50.972;3.538;2022-07-11T15:46:35;28.70;45.20
32706;DHT22;19094;50.972;3.538;2022-07-11T15:49:02;28.60;46.00
32706;DHT22;19094;50.972;3.538;2022-07-11T15:51:28;28.60;45.50
32706;DHT22;19094;50.972;3.538;2022-07-11T15:53:56;28.50;45.50
32706;DHT22;19094;50.972;3.538;2022-07-11T15:56:21;28.60;45.40
32706;DHT22;19094;50.972;3.538;2022-07-11T15:58:47;28.70;45.30
32706;DHT22;19094;50.972;3.538;2022-07-11T16:01:14;28.70;45.40
32706;DHT22;19094;50.972;3.538;2022-07-11T16:03:42;28.60;45.50
32706;DHT22;19094;50.972;3.538;2022-07-11T16:06:08;28.50;45.50
32706;DHT22;19094;50.972;3.538;2022-07-11T16:08:36;28.50;45.50
32706;DHT22;19094;50.972;3.538;2022-07-11T16:11:02;28.60;45.60
32706;DHT22;19094;50.972;3.538;2022-07-11T16:13:29;28.60;45.40
32706;DHT22;19094;50.972;3.538;2022-07-11T16:15:54;28.70;45.40